createdAt,value
2023-03-21T00:28:27.789Z,1007.93
2023-03-21T00:29:08.185Z,1007.96
2023-03-21T00:29:48.668Z,1007.92
2023-03-21T00:30:29.189Z,1007.93
2023-03-21T00:31:09.634Z,1007.97
2023-03-21T00:31:50.168Z,1007.95
2023-03-21T00:32:30.663Z,1007.95
2023-03-21T00:33:21.922Z,1007.98
2023-03-21T00:33:51.730Z,1007.95
2023-03-21T00:34:42.678Z,1007.97
2023-03-21T00:35:51.513Z,1007.97
2023-03-21T00:36:02.136Z,1007.94
2023-03-21T00:36:34.524Z,1007.92
2023-03-21T00:37:55.473Z,1007.93
2023-03-21T00:38:35.951Z,1007.92
2023-03-21T00:39:16.498Z,1007.92
2023-03-21T00:39:56.998Z,1007.9
2023-03-21T00:40:40.775Z,1007.89
2023-03-21T00:41:31.590Z,1007.88
2023-03-21T00:41:58.436Z,1007.88
2023-03-21T00:42:38.976Z,1007.87
2023-03-21T00:43:19.472Z,1007.87
2023-03-21T00:43:59.940Z,1007.87
2023-03-21T00:44:40.434Z,1007.85
2023-03-21T00:45:20.978Z,1007.86
2023-03-21T00:46:01.489Z,1007.82
2023-03-21T00:46:51.494Z,1007.79
2023-03-21T00:48:03.166Z,1007.8
2023-03-21T00:48:43.581Z,1007.74
2023-03-21T00:49:24.018Z,1007.77
2023-03-21T00:50:04.522Z,1007.78
2023-03-21T00:50:45.012Z,1007.77
2023-03-21T00:51:25.588Z,1007.75
2023-03-21T00:52:14.989Z,1007.74
2023-03-21T00:52:46.639Z,1007.71
2023-03-21T00:53:27.122Z,1007.74
2023-03-21T00:54:07.630Z,1007.75
2023-03-21T00:54:48.196Z,1007.7
2023-03-21T00:55:28.660Z,1007.67
2023-03-21T00:56:09.153Z,1007.66
2023-03-21T00:56:49.654Z,1007.67
2023-03-21T00:58:10.622Z,1007.71
2023-03-21T00:58:51.124Z,1007.71
2023-03-21T00:59:31.654Z,1007.68
2023-03-21T01:00:52.756Z,1007.69
2023-03-21T01:01:33.213Z,1007.67
2023-03-21T01:02:13.744Z,1007.69
2023-03-21T01:03:00.116Z,1007.71
2023-03-21T01:03:34.669Z,1007.74
2023-03-21T01:04:15.160Z,1007.71
2023-03-21T01:04:55.596Z,1007.75
2023-03-21T01:06:16.618Z,1007.7
2023-03-21T01:06:57.148Z,1007.68
2023-03-21T01:07:37.611Z,1007.68
2023-03-21T01:08:25.341Z,1007.68
2023-03-21T01:08:58.629Z,1007.67
2023-03-21T01:09:39.067Z,1007.65
2023-03-21T01:10:19.564Z,1007.65
2023-03-21T01:11:00.090Z,1007.64
2023-03-21T01:13:13.214Z,1007.64
2023-03-21T01:15:25.886Z,1007.6
2023-03-21T01:16:06.324Z,1007.62
2023-03-21T01:16:46.793Z,1007.67
2023-03-21T01:17:27.338Z,1007.66
2023-03-21T01:18:07.795Z,1007.65
2023-03-21T01:18:48.315Z,1007.64
2023-03-21T01:19:44.652Z,1007.65
2023-03-21T01:20:09.269Z,1007.67
2023-03-21T01:20:49.824Z,1007.64
2023-03-21T01:27:53.997Z,1007.6
2023-03-21T01:30:14.258Z,1007.55
2023-03-21T01:30:48.376Z,1007.53
2023-03-21T01:31:29.384Z,1007.56
2023-03-21T01:32:10.326Z,1007.53
2023-03-21T01:32:51.339Z,1007.51
2023-03-21T01:33:32.445Z,1007.55
2023-03-21T01:34:13.574Z,1007.53
2023-03-21T01:36:41.849Z,1007.51
2023-03-21T01:39:09.630Z,1007.52
2023-03-21T01:45:59.828Z,1007.39
2023-03-21T01:46:49.542Z,1007.35
2023-03-21T01:47:20.762Z,1007.36
2023-03-21T01:48:01.287Z,1007.36
2023-03-21T01:48:41.721Z,1007.38
2023-03-21T01:49:22.244Z,1007.36
2023-03-21T01:52:38.175Z,1007.31
2023-03-21T01:53:16.492Z,1007.31
2023-03-21T01:53:57.112Z,1007.28
2023-03-21T01:54:37.564Z,1007.28
2023-03-21T01:55:18.136Z,1007.18
2023-03-21T01:55:58.542Z,1007.21
2023-03-21T01:56:39.053Z,1007.21
2023-03-21T01:57:19.861Z,1007.21
2023-03-21T01:58:06.150Z,1007.22
2023-03-21T01:58:40.576Z,1007.17
2023-03-21T01:59:21.106Z,1007.2
2023-03-21T02:00:01.580Z,1007.18
2023-03-21T02:00:42.183Z,1007.22
2023-03-21T02:01:22.636Z,1007.17
2023-03-21T02:02:03.075Z,1007.14
2023-03-21T02:02:43.548Z,1007.13
2023-03-21T02:03:35.204Z,1007.14
2023-03-21T02:04:45.010Z,1007.13
2023-03-21T02:05:25.522Z,1007.12
2023-03-21T02:06:06.040Z,1007.11
2023-03-21T02:06:46.533Z,1007.11
2023-03-21T02:07:27.072Z,1007.09
2023-03-21T02:08:07.575Z,1007.08
2023-03-21T02:08:48.068Z,1007.07
2023-03-21T02:09:28.575Z,1007.04
2023-03-21T02:10:09.071Z,1007.08
2023-03-21T02:10:50.614Z,1007.01
2023-03-21T02:11:30.150Z,1007.02
2023-03-21T02:12:10.588Z,1006.98
2023-03-21T02:12:51.128Z,1007.03
2023-03-21T02:13:31.610Z,1007.01
2023-03-21T02:14:15.267Z,1007.03
2023-03-21T02:14:52.632Z,1006.98
2023-03-21T02:15:33.217Z,1007.02
2023-03-21T02:16:13.755Z,1007.01
2023-03-21T02:16:54.229Z,1006.98
2023-03-21T02:17:34.661Z,1006.99
2023-03-21T02:18:15.189Z,1006.96
2023-03-21T02:18:55.681Z,1006.97
2023-03-21T02:20:16.681Z,1006.94
2023-03-21T02:20:57.179Z,1006.9
2023-03-21T02:21:37.707Z,1006.9
2023-03-21T02:22:58.677Z,1006.84
2023-03-21T02:23:39.191Z,1006.84
2023-03-21T02:24:19.646Z,1006.83
2023-03-21T02:25:04.183Z,1006.87
2023-03-21T02:25:40.651Z,1006.83
2023-03-21T02:26:21.334Z,1006.82
2023-03-21T02:27:04.180Z,1006.81
2023-03-21T02:28:22.691Z,1006.82
2023-03-21T02:29:03.188Z,1006.85
2023-03-21T02:29:43.668Z,1006.84
2023-03-21T02:30:29.574Z,1006.84
2023-03-21T02:31:04.720Z,1006.83
2023-03-21T02:31:45.202Z,1006.84
2023-03-21T02:32:36.861Z,1006.87
2023-03-21T02:33:06.127Z,1006.84
2023-03-21T02:33:46.594Z,1006.85
2023-03-21T02:34:27.117Z,1006.85
2023-03-21T02:35:07.608Z,1006.84
2023-03-21T02:35:53.604Z,1006.86
2023-03-21T02:36:28.673Z,1006.87
2023-03-21T02:37:09.129Z,1006.85
2023-03-21T02:37:58.432Z,1006.84
2023-03-21T02:38:30.085Z,1006.82
2023-03-21T02:39:10.648Z,1006.84
2023-03-21T02:39:51.107Z,1006.84
2023-03-21T02:40:31.679Z,1006.83
2023-03-21T02:41:18.141Z,1006.84
2023-03-21T02:41:52.584Z,1006.85
2023-03-21T02:42:33.120Z,1006.85
2023-03-21T02:43:22.416Z,1006.85
2023-03-21T02:43:54.045Z,1006.82
2023-03-21T02:44:34.514Z,1006.82
2023-03-21T02:45:15.038Z,1006.84
2023-03-21T02:45:55.598Z,1006.84
2023-03-21T02:46:44.103Z,1006.84
2023-03-21T02:47:16.716Z,1006.83
2023-03-21T02:47:57.184Z,1006.81
2023-03-21T02:48:49.676Z,1006.8
2023-03-21T02:49:18.118Z,1006.8
2023-03-21T02:49:58.637Z,1006.79
2023-03-21T02:50:39.312Z,1006.8
2023-03-21T02:51:19.563Z,1006.75
2023-03-21T02:52:05.245Z,1006.77
2023-03-21T02:52:40.680Z,1006.73
2023-03-21T02:53:21.149Z,1006.72
2023-03-21T02:54:30.186Z,1006.71
2023-03-21T02:54:48.198Z,1006.71
2023-03-21T02:55:22.569Z,1006.72
2023-03-21T02:56:03.096Z,1006.73
2023-03-21T02:56:43.631Z,1006.71
2023-03-21T02:57:27.071Z,1006.68
2023-03-21T02:58:12.658Z,1006.7
2023-03-21T02:58:45.048Z,1006.69
2023-03-21T02:59:25.505Z,1006.69
2023-03-21T03:00:15.709Z,1006.7
2023-03-21T03:00:46.493Z,1006.66
2023-03-21T03:01:27.020Z,1006.65
2023-03-21T03:02:07.548Z,1006.62
2023-03-21T03:02:50.664Z,1006.62
2023-03-21T03:03:34.289Z,1006.69
2023-03-21T03:04:49.616Z,1006.64
2023-03-21T03:05:30.123Z,1006.64
2023-03-21T03:06:10.596Z,1006.65
2023-03-21T03:06:51.115Z,1006.63
2023-03-21T03:07:31.627Z,1006.68
2023-03-21T03:08:12.209Z,1006.67
2023-03-21T03:09:01.734Z,1006.66
2023-03-21T03:09:33.145Z,1006.67
2023-03-21T03:10:13.725Z,1006.62
2023-03-21T03:10:54.125Z,1006.63
2023-03-21T03:11:34.727Z,1006.63
2023-03-21T03:12:15.139Z,1006.59
2023-03-21T03:12:55.648Z,1006.56
2023-03-21T03:13:36.112Z,1006.58
2023-03-21T03:14:36.945Z,1006.54
2023-03-21T03:15:03.315Z,1006.5
2023-03-21T03:15:37.629Z,1006.51
2023-03-21T03:16:18.098Z,1006.52
2023-03-21T03:16:58.558Z,1006.45
2023-03-21T03:18:19.587Z,1006.51
2023-03-21T03:19:00.135Z,1006.44
2023-03-21T03:19:49.652Z,1006.47
2023-03-21T03:20:21.064Z,1006.5
2023-03-21T03:21:01.557Z,1006.52
2023-03-21T03:21:42.028Z,1006.51
2023-03-21T03:22:22.568Z,1006.5
2023-03-21T03:23:03.097Z,1006.48
2023-03-21T03:23:43.582Z,1006.46
2023-03-21T03:24:24.016Z,1006.51
2023-03-21T03:25:16.281Z,1006.47
2023-03-21T03:25:45.064Z,1006.49
2023-03-21T03:26:25.573Z,1006.47
2023-03-21T03:27:06.061Z,1006.46
2023-03-21T03:27:46.593Z,1006.44
2023-03-21T03:28:27.111Z,1006.44
2023-03-21T03:29:07.572Z,1006.43
2023-03-21T03:29:48.086Z,1006.44
2023-03-21T03:30:35.514Z,1006.37
2023-03-21T03:31:10.345Z,1006.4
2023-03-21T03:31:49.606Z,1006.38
2023-03-21T03:32:30.093Z,1006.38
2023-03-21T03:33:10.577Z,1006.36
2023-03-21T03:33:51.094Z,1006.37
2023-03-21T03:34:31.670Z,1006.39
2023-03-21T03:35:12.129Z,1006.32
2023-03-21T03:36:04.329Z,1006.42
2023-03-21T03:36:33.635Z,1006.37
2023-03-21T03:37:13.566Z,1006.38
2023-03-21T03:37:54.054Z,1006.38
2023-03-21T03:38:34.542Z,1006.36
2023-03-21T03:39:15.128Z,1006.39
2023-03-21T03:39:55.588Z,1006.38
2023-03-21T03:40:36.211Z,1006.44
2023-03-21T03:41:16.621Z,1006.37
2023-03-21T03:42:09.956Z,1006.34
2023-03-21T03:42:37.660Z,1006.36
2023-03-21T03:43:18.160Z,1006.36
2023-03-21T03:43:58.693Z,1006.37
2023-03-21T03:44:39.174Z,1006.34
2023-03-21T03:45:19.745Z,1006.32
2023-03-21T03:46:00.226Z,1006.31
2023-03-21T03:46:40.688Z,1006.29
2023-03-21T03:47:32.160Z,1006.27
2023-03-21T03:48:01.692Z,1006.27
2023-03-21T03:48:42.143Z,1006.26
2023-03-21T03:49:22.606Z,1006.28
2023-03-21T03:50:03.211Z,1006.25
2023-03-21T03:50:43.621Z,1006.24
2023-03-21T03:51:24.121Z,1006.28
2023-03-21T03:52:04.672Z,1006.24
2023-03-21T03:52:55.530Z,1006.26
2023-03-21T03:53:25.685Z,1006.25
2023-03-21T03:54:06.685Z,1006.23
2023-03-21T03:54:47.157Z,1006.26
2023-03-21T03:55:27.666Z,1006.24
2023-03-21T03:56:08.155Z,1006.26
2023-03-21T03:56:48.620Z,1006.22
2023-03-21T03:57:29.147Z,1006.25
2023-03-21T03:58:19.834Z,1006.27
2023-03-21T03:59:30.626Z,1006.25
2023-03-21T04:00:11.164Z,1006.29
2023-03-21T04:00:51.714Z,1006.28
2023-03-21T04:01:32.136Z,1006.28
2023-03-21T04:02:12.620Z,1006.3
2023-03-21T04:02:53.148Z,1006.26
2023-03-21T04:03:46.222Z,1006.25
2023-03-21T04:04:14.124Z,1006.26
2023-03-21T04:04:54.579Z,1006.27
2023-03-21T04:05:35.049Z,1006.3
2023-03-21T04:06:15.541Z,1006.27
2023-03-21T04:06:57.949Z,1006.31
2023-03-21T04:07:36.484Z,1006.28
2023-03-21T04:08:16.972Z,1006.27
2023-03-21T04:09:44.415Z,1006.3
2023-03-21T04:10:18.478Z,1006.26
2023-03-21T04:10:59.031Z,1006.27
2023-03-21T04:11:39.481Z,1006.28
2023-03-21T04:12:19.976Z,1006.27
2023-03-21T04:13:00.461Z,1006.25
2023-03-21T04:13:40.983Z,1006.35
2023-03-21T04:14:21.479Z,1006.29
2023-03-21T04:15:09.705Z,1006.26
2023-03-21T04:15:42.417Z,1006.3
2023-03-21T04:16:22.944Z,1006.28
2023-03-21T04:17:03.427Z,1006.27
2023-03-21T04:17:43.908Z,1006.26
2023-03-21T04:18:24.408Z,1006.24
2023-03-21T04:19:04.896Z,1006.24
2023-03-21T04:19:45.572Z,1006.28
2023-03-21T04:20:35.950Z,1006.29
2023-03-21T04:21:06.460Z,1006.28
2023-03-21T04:21:46.920Z,1006.25
2023-03-21T04:22:27.512Z,1006.21
2023-03-21T04:23:07.941Z,1006.25
2023-03-21T04:23:48.413Z,1006.29
2023-03-21T04:24:28.923Z,1006.2
2023-03-21T04:25:09.431Z,1006.23
2023-03-21T04:25:56.177Z,1006.24
2023-03-21T04:26:30.386Z,1006.3
2023-03-21T04:27:10.937Z,1006.2
2023-03-21T04:27:51.410Z,1006.16
2023-03-21T04:28:31.932Z,1006.16
2023-03-21T04:29:12.385Z,1006.19
2023-03-21T04:29:52.876Z,1006.22
2023-03-21T04:30:33.371Z,1006.18
2023-03-21T04:31:24.796Z,1006.25
2023-03-21T04:31:54.423Z,1006.21
2023-03-21T04:32:34.930Z,1006.24
2023-03-21T04:33:15.480Z,1006.26
2023-03-21T04:33:55.977Z,1006.22
2023-03-21T04:34:36.409Z,1006.24
2023-03-21T04:35:16.917Z,1006.23
2023-03-21T04:35:57.561Z,1006.21
2023-03-21T04:36:37.940Z,1006.19
2023-03-21T04:37:18.410Z,1006.18
2023-03-21T04:37:58.906Z,1006.2
2023-03-21T04:38:39.393Z,1006.15
2023-03-21T04:40:00.396Z,1006.06
2023-03-21T04:40:40.921Z,1006.08
2023-03-21T04:41:21.371Z,1006.07
2023-03-21T04:42:01.849Z,1006.11
2023-03-21T04:42:42.368Z,1006.06
2023-03-21T04:43:22.912Z,1006.08
2023-03-21T04:44:03.465Z,1006.06
2023-03-21T04:44:43.946Z,1006.09
2023-03-21T04:45:24.385Z,1006.1
2023-03-21T04:46:04.934Z,1006.12
2023-03-21T04:46:45.420Z,1006.14
2023-03-21T04:47:25.858Z,1006.17
2023-03-21T04:48:06.414Z,1006.11
2023-03-21T04:48:46.909Z,1006.18
2023-03-21T04:50:07.825Z,1006.14
2023-03-21T04:50:48.409Z,1006.11
2023-03-21T04:51:28.873Z,1006.09
2023-03-21T04:52:09.370Z,1006.11
2023-03-21T04:52:49.880Z,1006.07
2023-03-21T04:53:30.330Z,1006.06
2023-03-21T04:54:10.880Z,1006.06
2023-03-21T04:54:51.364Z,1006.1
2023-03-21T04:55:31.863Z,1006.04
2023-03-21T04:56:12.362Z,1006.07
2023-03-21T04:57:33.313Z,1006.02
2023-03-21T04:58:13.862Z,1006.04
2023-03-21T04:58:54.309Z,1006.03
2023-03-21T04:59:34.792Z,1006.03
2023-03-21T05:00:15.260Z,1006
2023-03-21T05:00:55.818Z,1006.05
2023-03-21T05:01:36.336Z,1006.06
2023-03-21T05:02:16.802Z,1006.08
2023-03-21T05:02:57.244Z,1006.07
2023-03-21T05:03:37.788Z,1006.04
2023-03-21T05:04:18.338Z,1006.07
2023-03-21T05:04:58.739Z,1006.03
2023-03-21T05:05:39.583Z,1006.03
2023-03-21T05:06:19.750Z,1006.05
2023-03-21T05:07:00.239Z,1006.06
2023-03-21T05:07:41.583Z,1006.06
2023-03-21T05:08:22.084Z,1006
2023-03-21T05:09:02.593Z,1006.05
2023-03-21T05:09:43.099Z,1006.03
2023-03-21T05:10:23.533Z,1006.07
2023-03-21T05:11:04.041Z,1006.04
2023-03-21T05:11:44.607Z,1006.02
2023-03-21T05:12:25.030Z,1006.01
2023-03-21T05:13:05.523Z,1006.02
2023-03-21T05:13:46.115Z,1006.04
2023-03-21T05:14:26.556Z,1006.04
2023-03-21T05:15:07.033Z,1006.06
2023-03-21T05:15:47.552Z,1006.06
2023-03-21T05:16:28.090Z,1006.06
2023-03-21T05:17:08.579Z,1006.09
2023-03-21T05:17:49.158Z,1006.08
2023-03-21T05:18:30.257Z,1006.08
2023-03-21T05:19:10.758Z,1006.06
2023-03-21T05:19:51.265Z,1006.09
2023-03-21T05:20:31.760Z,1006.05
2023-03-21T05:21:12.296Z,1006.05
2023-03-21T05:21:52.874Z,1006.04
2023-03-21T05:22:33.319Z,1006.08
2023-03-21T05:23:13.876Z,1006.09
2023-03-21T05:23:54.321Z,1006.09
2023-03-21T05:25:15.401Z,1006.06
2023-03-21T05:25:55.933Z,1006.05
2023-03-21T05:26:36.453Z,1006.07
2023-03-21T05:27:16.946Z,1006.1
2023-03-21T05:27:57.424Z,1006.08
2023-03-21T05:28:37.949Z,1006.1
2023-03-21T05:29:18.461Z,1006.14
2023-03-21T05:29:58.955Z,1006.1
2023-03-21T05:30:39.528Z,1006.16
2023-03-21T05:31:20.032Z,1006.14
2023-03-21T05:32:00.511Z,1006.13
2023-03-21T05:32:40.980Z,1006.1
2023-03-21T05:33:21.462Z,1006.09
2023-03-21T05:34:01.945Z,1006.12
2023-03-21T05:35:22.977Z,1006.14
2023-03-21T05:36:03.460Z,1006.15
2023-03-21T05:36:43.997Z,1006.1
2023-03-21T05:37:24.467Z,1006.15
2023-03-21T05:38:05.034Z,1006.12
2023-03-21T05:38:45.628Z,1006.11
2023-03-21T05:39:25.971Z,1006.11
2023-03-21T05:40:06.522Z,1006.07
2023-03-21T05:40:46.975Z,1006.12
2023-03-21T05:41:27.491Z,1006.1
2023-03-21T05:42:48.397Z,1006.07
2023-03-21T05:43:28.901Z,1006.05
2023-03-21T05:44:09.546Z,1006.03
2023-03-21T05:44:50.045Z,1006.02
2023-03-21T05:45:30.519Z,1006.04
2023-03-21T05:46:11.038Z,1006.04
2023-03-21T05:46:51.530Z,1006.06
2023-03-21T05:47:31.970Z,1006.04
2023-03-21T05:48:12.518Z,1006.02
2023-03-21T05:48:53.143Z,1006.07
2023-03-21T05:49:33.714Z,1006.04
2023-03-21T05:50:14.191Z,1006.05
2023-03-21T05:50:54.845Z,1006.02
2023-03-21T05:51:35.337Z,1006.09
2023-03-21T05:52:17.549Z,1006.11
2023-03-21T05:52:57.986Z,1006.1
2023-03-21T05:53:39.500Z,1006.12
2023-03-21T06:31:22.402Z,1006.27
2023-03-21T06:32:02.819Z,1006.28
2023-03-21T06:32:43.306Z,1006.28
2023-03-21T06:33:23.869Z,1006.29
2023-03-21T06:34:04.364Z,1006.26
2023-03-21T06:34:44.894Z,1006.29
2023-03-21T06:35:25.419Z,1006.3
2023-03-21T06:36:05.881Z,1006.31
2023-03-21T06:36:46.348Z,1006.34
2023-03-21T06:37:26.855Z,1006.31
2023-03-21T06:38:07.405Z,1006.31
2023-03-21T06:38:47.927Z,1006.34
2023-03-21T06:39:28.462Z,1006.31
2023-03-21T06:40:08.982Z,1006.32
2023-03-21T06:40:49.596Z,1006.3
2023-03-21T06:41:30.170Z,1006.31
2023-03-21T06:42:10.667Z,1006.3
2023-03-21T06:42:51.281Z,1006.33
2023-03-21T06:43:31.711Z,1006.32
2023-03-21T06:44:12.237Z,1006.3
2023-03-21T06:44:52.744Z,1006.26
2023-03-21T06:45:33.208Z,1006.32
2023-03-21T06:46:13.807Z,1006.28
2023-03-21T06:46:54.361Z,1006.34
2023-03-21T06:47:34.759Z,1006.34
2023-03-21T06:48:15.318Z,1006.36
2023-03-21T06:48:55.761Z,1006.3
2023-03-21T06:49:36.255Z,1006.36
2023-03-21T06:50:17.138Z,1006.36
2023-03-21T06:50:57.719Z,1006.34
2023-03-21T06:51:38.267Z,1006.33
2023-03-21T06:52:18.804Z,1006.39
2023-03-21T06:52:59.304Z,1006.39
2023-03-21T06:53:39.817Z,1006.37
2023-03-21T06:54:20.301Z,1006.27
2023-03-21T06:55:01.550Z,1006.35
2023-03-21T06:55:42.272Z,1006.25
2023-03-21T06:56:22.797Z,1006.35
2023-03-21T06:57:03.259Z,1006.36
2023-03-21T06:57:43.777Z,1006.4
2023-03-21T06:58:24.263Z,1006.38
2023-03-21T06:59:04.795Z,1006.38
2023-03-21T06:59:45.276Z,1006.34
2023-03-21T07:00:25.783Z,1006.34
2023-03-21T07:01:06.357Z,1006.32
2023-03-21T07:01:46.893Z,1006.33
2023-03-21T07:02:27.573Z,1006.37
2023-03-21T07:03:07.904Z,1006.36
2023-03-21T07:03:48.431Z,1006.31
2023-03-21T07:04:28.939Z,1006.32
2023-03-21T07:05:09.476Z,1006.29
2023-03-21T07:05:49.965Z,1005.94
2023-03-21T07:06:30.466Z,1006.28
2023-03-21T07:07:10.984Z,1006.31
2023-03-21T07:07:51.445Z,1006.22
2023-03-21T07:08:32.014Z,1006.32
2023-03-21T07:09:12.505Z,1006.29
2023-03-21T07:09:53.020Z,1006.3
2023-03-21T07:10:33.507Z,1006.25
2023-03-21T07:11:14.041Z,1006.32
2023-03-21T07:11:54.580Z,1006.34
2023-03-21T07:12:35.069Z,1006.29
2023-03-21T07:13:15.643Z,1006.29
2023-03-21T07:13:56.213Z,1006.31
2023-03-21T07:14:37.159Z,1006.34
2023-03-21T07:15:17.663Z,1006.35
2023-03-21T07:15:58.194Z,1006.28
2023-03-21T07:16:38.904Z,1006.33
2023-03-21T07:17:19.433Z,1006.3
2023-03-21T07:17:59.933Z,1006.32
2023-03-21T07:18:40.380Z,1006.32
2023-03-21T07:19:20.915Z,1006.36
2023-03-21T07:20:01.450Z,1006.32
2023-03-21T07:20:42.060Z,1006.34
2023-03-21T07:21:22.783Z,1006.29
2023-03-21T07:22:03.286Z,1006.3
2023-03-21T07:22:43.834Z,1006.29
2023-03-21T07:23:24.378Z,1006.31
2023-03-21T07:24:05.503Z,1006.3
2023-03-21T07:24:50.935Z,1006.29
2023-03-21T07:25:26.534Z,1006.25
2023-03-21T07:26:07.814Z,1006.29
2023-03-21T07:26:48.337Z,1006.28
2023-03-21T07:27:28.882Z,1006.3
2023-03-21T07:28:09.391Z,1006.28
2023-03-21T07:28:49.919Z,1006.3
2023-03-21T07:29:30.426Z,1006.35
2023-03-21T07:30:10.908Z,1006.27
2023-03-21T07:30:51.453Z,1006.32
2023-03-21T07:31:32.092Z,1006.3
2023-03-21T07:32:12.582Z,1006.35
2023-03-21T07:32:53.145Z,1006.28
2023-03-21T07:33:33.752Z,1006.3
2023-03-21T07:34:14.314Z,1006.28
2023-03-21T07:34:54.764Z,1006.26
2023-03-21T07:35:35.374Z,1006.26
2023-03-21T07:36:15.806Z,1006.28
2023-03-21T07:36:56.270Z,1006.24
2023-03-21T07:37:38.084Z,1006.24
2023-03-21T07:38:17.315Z,1006.29
2023-03-21T07:38:58.045Z,1006.25
2023-03-21T07:39:38.505Z,1006.27
2023-03-21T07:40:19.055Z,1006.22
2023-03-21T07:40:59.575Z,1006.25
2023-03-21T07:41:40.083Z,1006.24
2023-03-21T07:42:20.631Z,1006.28
2023-03-21T07:43:41.643Z,1006.21
2023-03-21T07:44:22.173Z,1006.27
2023-03-21T07:45:02.851Z,1006.22
2023-03-21T07:45:43.369Z,1006.23
2023-03-21T07:46:23.999Z,1006.24
2023-03-21T07:47:04.449Z,1006.22
2023-03-21T07:47:45.138Z,1006.24
2023-03-21T07:48:25.606Z,1006.23
2023-03-21T07:49:06.232Z,1006.26
2023-03-21T07:49:46.711Z,1006.29
2023-03-21T07:50:27.290Z,1006.24
2023-03-21T07:51:07.707Z,1006.26
2023-03-21T07:51:48.209Z,1006.25
2023-03-21T07:52:28.728Z,1006.23
2023-03-21T07:53:09.300Z,1006.23
2023-03-21T07:53:49.876Z,1006.25
2023-03-21T07:54:30.424Z,1006.2
2023-03-21T07:55:10.965Z,1006.23
2023-03-21T07:55:51.521Z,1006.16
2023-03-21T07:56:31.980Z,1006.21
2023-03-21T07:57:13.705Z,1006.28
2023-03-21T07:57:53.188Z,1006.28
2023-03-21T07:58:39.719Z,1006.24
2023-03-21T08:02:09.462Z,1006.29
2023-03-21T08:02:51.133Z,1006.31
2023-03-21T08:03:31.952Z,1006.21
2023-03-21T08:04:12.376Z,1006.27
2023-03-21T08:04:54.473Z,1006.26
2023-03-21T08:05:34.968Z,1006.25
2023-03-21T08:06:15.521Z,1006.3
2023-03-21T08:06:56.834Z,1006.28
2023-03-21T08:07:37.685Z,1006.3
2023-03-21T08:08:18.384Z,1006.33
2023-03-21T08:08:59.128Z,1006.31
2023-03-21T08:09:39.787Z,1006.29
2023-03-21T08:10:20.360Z,1006.33
2023-03-21T08:11:01.683Z,1006.32
2023-03-21T08:11:42.254Z,1006.31
2023-03-21T08:12:22.778Z,1006.3
2023-03-21T08:13:04.274Z,1006.29
2023-03-21T08:13:45.129Z,1006.26
2023-03-21T08:14:25.917Z,1006.29
2023-03-21T08:15:06.824Z,1006.29
2023-03-21T08:15:48.444Z,1006.3
2023-03-21T08:16:28.960Z,1006.33
2023-03-21T08:17:09.694Z,1006.27
2023-03-21T08:17:50.251Z,1006.32
2023-03-21T08:18:30.749Z,1006.27
2023-03-21T08:19:11.248Z,1006.3
2023-03-21T08:20:32.395Z,1006.29
2023-03-21T08:21:13.966Z,1006.31
2023-03-21T08:21:56.357Z,1006.32
2023-03-21T08:22:36.156Z,1006.3
2023-03-21T08:23:16.704Z,1006.33
2023-03-21T08:23:57.215Z,1006.29
2023-03-21T08:24:43.688Z,1006.29
2023-03-21T08:28:05.378Z,1006.29
2023-03-21T08:28:45.858Z,1006.31
2023-03-21T08:29:27.395Z,1006.3
2023-03-21T08:30:08.065Z,1006.29
2023-03-21T08:30:48.595Z,1006.28
2023-03-21T08:31:29.311Z,1006.25
2023-03-21T08:32:09.866Z,1006.35
2023-03-21T08:32:50.731Z,1006.2
2023-03-21T08:33:31.385Z,1006.25
2023-03-21T08:34:11.977Z,1006.17
2023-03-21T08:34:56.976Z,1006.19
2023-03-21T08:35:40.447Z,1006.2
2023-03-21T08:36:18.397Z,1006.21
2023-03-21T08:37:00.580Z,1006.29
2023-03-21T08:37:41.249Z,1006.16
2023-03-21T08:38:21.898Z,1006.24
2023-03-21T08:39:03.757Z,1006.24
2023-03-21T08:39:44.457Z,1006.22
2023-03-21T08:40:25.243Z,1006.23
2023-03-21T08:41:05.705Z,1006.26
2023-03-21T08:41:46.356Z,1006.21
2023-03-21T08:43:07.593Z,1006.26
2023-03-21T08:43:47.967Z,1006.26
2023-03-21T08:44:28.734Z,1006.3
2023-03-21T08:45:09.492Z,1006.26
2023-03-21T08:45:50.126Z,1006.25
2023-03-21T08:46:30.783Z,1006.27
2023-03-21T08:47:12.385Z,1006.26
2023-03-21T08:47:53.630Z,1006.19
2023-03-21T08:48:34.139Z,1006.25
2023-03-21T08:49:15.356Z,1006.28
2023-03-21T08:50:36.977Z,1006.26
2023-03-21T08:53:04.911Z,1006.24
2023-03-21T08:53:46.407Z,1006.29
2023-03-21T08:54:27.156Z,1006.26
2023-03-21T08:55:07.738Z,1006.23
2023-03-21T08:55:48.265Z,1006.21
2023-03-21T08:56:29.575Z,1006.18
2023-03-21T08:57:10.278Z,1006.17
2023-03-21T08:57:50.700Z,1006.21
2023-03-21T08:58:31.394Z,1006.2
2023-03-21T08:59:11.954Z,1006.23
2023-03-21T09:00:33.244Z,1006.22
2023-03-21T09:01:13.759Z,1006.24
2023-03-21T09:01:55.028Z,1006.27
2023-03-21T09:02:35.461Z,1006.24
2023-03-21T09:03:16.044Z,1006.24
2023-03-21T09:03:56.570Z,1006.22
2023-03-21T09:04:37.213Z,1006.23
2023-03-21T09:05:18.929Z,1006.24
2023-03-21T09:05:59.608Z,1006.27
2023-03-21T09:08:11.346Z,1006.23
2023-03-21T09:08:52.704Z,1006.28
2023-03-21T09:09:32.451Z,1006.22
2023-03-21T09:10:22.042Z,1006.25
2023-03-21T09:10:54.082Z,1006.22
2023-03-21T09:11:34.848Z,1006.23
2023-03-21T09:12:15.464Z,1006.28
2023-03-21T09:12:55.984Z,1006.26
2023-03-21T09:13:36.630Z,1006.27
2023-03-21T09:14:17.747Z,1006.25
2023-03-21T09:14:58.068Z,1006.25
2023-03-21T09:15:38.935Z,1006.26
2023-03-21T09:16:19.307Z,1006.25
2023-03-21T09:17:00.094Z,1006.25
2023-03-21T09:17:41.729Z,1006.23
2023-03-21T09:18:22.328Z,1006.23
2023-03-21T09:19:03.936Z,1006.25
2023-03-21T09:19:44.469Z,1006.25
2023-03-21T09:20:25.037Z,1006.24
2023-03-21T09:21:05.703Z,1006.21
2023-03-21T09:21:46.325Z,1006.21
2023-03-21T09:22:27.209Z,1006.2
2023-03-21T09:23:07.636Z,1006.19
2023-03-21T09:23:49.015Z,1006.18
2023-03-21T09:24:30.441Z,1006.16
2023-03-21T09:25:11.609Z,1006.23
2023-03-21T09:25:53.342Z,1006.26
2023-03-21T09:26:34.081Z,1006.2
2023-03-21T09:27:14.656Z,1006.16
2023-03-21T09:27:55.420Z,1006.2
2023-03-21T09:28:37.065Z,1006.19
2023-03-21T09:29:17.510Z,1006.21
2023-03-21T09:29:58.111Z,1006.17
2023-03-21T09:30:38.744Z,1006.25
2023-03-21T09:32:43.541Z,1006.25
2023-03-21T09:33:24.629Z,1006.24
2023-03-21T09:34:06.185Z,1006.19
2023-03-21T09:34:47.860Z,1006.18
2023-03-21T09:35:29.260Z,1006.21
2023-03-21T09:36:10.772Z,1006.22
2023-03-21T09:36:52.190Z,1006.23
2023-03-21T09:37:33.231Z,1006.18
2023-03-21T09:38:14.678Z,1006.19
2023-03-21T09:38:56.033Z,1006.23
2023-03-21T09:39:37.228Z,1006.18
2023-03-21T09:40:18.445Z,1006.22
2023-03-21T09:40:59.459Z,1006.28
2023-03-21T09:41:40.805Z,1006.21
2023-03-21T09:42:21.955Z,1006.22
2023-03-21T09:43:03.248Z,1006.2
2023-03-21T09:43:44.251Z,1006.19
2023-03-21T09:47:17.802Z,1006.32
2023-03-21T09:48:00.390Z,1006.21
2023-03-21T09:48:54.304Z,1006.21
2023-03-21T09:49:24.639Z,1006.13
2023-03-21T09:51:26.800Z,1006.12
2023-03-21T09:52:07.320Z,1006.09
2023-03-21T09:52:48.220Z,1006.07
2023-03-21T09:53:28.503Z,1006.07
2023-03-21T09:54:09.028Z,1006.08
2023-03-21T09:54:49.592Z,1006.12
2023-03-21T09:55:30.193Z,1006.14
2023-03-21T09:56:10.675Z,1006.11
2023-03-21T09:56:51.259Z,1006.04
2023-03-21T09:57:31.922Z,1006.07
2023-03-21T09:58:12.771Z,1006.08
2023-03-21T09:58:53.580Z,1006.07
2023-03-21T09:59:34.180Z,1006.08
2023-03-21T10:00:14.774Z,1006.04
2023-03-21T10:00:55.521Z,1006.02
2023-03-21T10:01:36.821Z,1006.04
2023-03-21T10:02:17.588Z,1005.99
2023-03-21T10:02:57.946Z,1006.06
2023-03-21T10:03:38.534Z,1006
2023-03-21T10:04:19.391Z,1005.93
2023-03-21T10:09:35.482Z,1006
2023-03-21T10:10:16.525Z,1005.96
2023-03-21T10:10:56.928Z,1006.05
2023-03-21T10:11:37.403Z,1005.99
2023-03-21T10:12:19.809Z,1005.99
2023-03-21T10:13:00.455Z,1005.94
2023-03-21T10:13:41.783Z,1005.97
2023-03-21T10:14:22.762Z,1005.95
2023-03-21T10:15:20.051Z,1005.93
2023-03-21T10:16:00.015Z,1005.95
2023-03-21T10:16:40.734Z,1006
2023-03-21T10:17:21.265Z,1005.93